sensor_id;sensor_type;location;lat;lon;timestamp;temperature;humidity
25092;DHT22;13082;52.374;4.946;2023-01-01T12:22:18;13.50;99.90
25092;DHT22;13082;52.374;4.946;2023-01-01T12:24:46;13.40;99.90
25092;DHT22;13082;52.374;4.946;2023-01-01T12:35:51;13.30;99.90
25092;DHT22;13082;52.374;4.946;2023-01-01T12:41:12;13.30;99.90
25092;DHT22;13082;52.374;4.946;2023-01-01T12:48:59;13.20;99.90
25092;DHT22;13082;52.374;4.946;2023-01-01T12:56:58;13.10;99.90
25092;DHT22;13082;52.374;4.946;2023-01-01T12:59:36;13.10;99.90
25092;DHT22;13082;52.374;4.946;2023-01-01T13:02:12;13.10;99.90
25092;DHT22;13082;52.374;4.946;2023-01-01T13:04:39;13.00;99.90
25092;DHT22;13082;52.374;4.946;2023-01-01T13:07:10;13.10;99.90
25092;DHT22;13082;52.374;4.946;2023-01-01T13:09:40;13.00;99.90
25092;DHT22;13082;52.374;4.946;2023-01-01T13:12:15;13.00;99.90
25092;DHT22;13082;52.374;4.946;2023-01-01T13:14:43;13.00;99.90
25092;DHT22;13082;52.374;4.946;2023-01-01T13:17:28;13.00;99.90
25092;DHT22;13082;52.374;4.946;2023-01-01T13:19:57;13.00;99.90
25092;DHT22;13082;52.374;4.946;2023-01-01T13:35:40;13.00;99.90
25092;DHT22;13082;52.374;4.946;2023-01-01T13:44:37;13.00;99.90
25092;DHT22;13082;52.374;4.946;2023-01-01T13:49:27;13.00;99.90
25092;DHT22;13082;52.374;4.946;2023-01-01T14:00:53;13.00;99.90
25092;DHT22;13082;52.374;4.946;2023-01-01T14:03:23;13.10;99.90
25092;DHT22;13082;52.374;4.946;2023-01-01T14:05:59;13.00;99.90
25092;DHT22;13082;52.374;4.946;2023-01-01T14:08:34;13.00;99.90
25092;DHT22;13082;52.374;4.946;2023-01-01T14:11:02;12.90;99.90
25092;DHT22;13082;52.374;4.946;2023-01-01T14:13:40;13.00;99.90
25092;DHT22;13082;52.374;4.946;2023-01-01T14:16:08;13.00;99.90
25092;DHT22;13082;52.374;4.946;2023-01-01T14:18:46;13.00;99.90
25092;DHT22;13082;52.374;4.946;2023-01-01T14:21:19;12.90;99.90
25092;DHT22;13082;52.374;4.946;2023-01-01T14:23:48;12.90;99.90
25092;DHT22;13082;52.374;4.946;2023-01-01T14:26:18;12.90;99.90
25092;DHT22;13082;52.374;4.946;2023-01-01T14:28:45;12.80;99.90
25092;DHT22;13082;52.374;4.946;2023-01-01T14:31:13;12.80;99.90
25092;DHT22;13082;52.374;4.946;2023-01-01T14:33:39;12.80;99.90
25092;DHT22;13082;52.374;4.946;2023-01-01T14:36:19;12.80;99.90
25092;DHT22;13082;52.374;4.946;2023-01-01T14:38:47;12.80;99.90
25092;DHT22;13082;52.374;4.946;2023-01-01T14:41:18;12.80;99.90
25092;DHT22;13082;52.374;4.946;2023-01-01T14:43:47;12.80;99.90
25092;DHT22;13082;52.374;4.946;2023-01-01T14:46:17;12.80;99.90
25092;DHT22;13082;52.374;4.946;2023-01-01T14:48:45;12.80;99.90
25092;DHT22;13082;52.374;4.946;2023-01-01T14:51:20;12.80;99.90
25092;DHT22;13082;52.374;4.946;2023-01-01T14:53:47;12.80;99.90
25092;DHT22;13082;52.374;4.946;2023-01-01T14:56:35;12.70;99.90
25092;DHT22;13082;52.374;4.946;2023-01-01T14:59:10;12.70;99.90
25092;DHT22;13082;52.374;4.946;2023-01-01T15:01:37;12.70;99.90
25092;DHT22;13082;52.374;4.946;2023-01-01T15:04:19;12.70;99.90
25092;DHT22;13082;52.374;4.946;2023-01-01T15:06:45;12.60;99.90
25092;DHT22;13082;52.374;4.946;2023-01-01T15:09:16;12.60;99.90
25092;DHT22;13082;52.374;4.946;2023-01-01T15:11:42;12.60;99.90
25092;DHT22;13082;52.374;4.946;2023-01-01T15:14:29;12.50;99.90
25092;DHT22;13082;52.374;4.946;2023-01-01T15:17:08;12.50;99.90
25092;DHT22;13082;52.374;4.946;2023-01-01T15:19:35;12.50;99.90
25092;DHT22;13082;52.374;4.946;2023-01-01T15:22:10;12.50;99.90
25092;DHT22;13082;52.374;4.946;2023-01-01T15:24:37;12.40;99.90
25092;DHT22;13082;52.374;4.946;2023-01-01T15:27:05;12.40;99.90
25092;DHT22;13082;52.374;4.946;2023-01-01T15:32:01;12.30;99.90
25092;DHT22;13082;52.374;4.946;2023-01-01T15:34:33;12.40;99.90
25092;DHT22;13082;52.374;4.946;2023-01-01T15:37:13;12.30;99.90
25092;DHT22;13082;52.374;4.946;2023-01-01T15:39:51;12.30;99.90
25092;DHT22;13082;52.374;4.946;2023-01-01T15:45:20;12.30;99.90
25092;DHT22;13082;52.374;4.946;2023-01-01T15:47:48;12.30;99.90
25092;DHT22;13082;52.374;4.946;2023-01-01T15:50:28;12.30;99.90
25092;DHT22;13082;52.374;4.946;2023-01-01T15:53:06;12.20;99.90
25092;DHT22;13082;52.374;4.946;2023-01-01T15:55:34;12.30;99.90
25092;DHT22;13082;52.374;4.946;2023-01-01T15:58:02;12.30;99.90
25092;DHT22;13082;52.374;4.946;2023-01-01T16:00:30;12.20;99.90
25092;DHT22;13082;52.374;4.946;2023-01-01T16:03:01;12.20;99.90
25092;DHT22;13082;52.374;4.946;2023-01-01T16:05:33;12.30;99.90
25092;DHT22;13082;52.374;4.946;2023-01-01T16:08:00;12.20;99.90
25092;DHT22;13082;52.374;4.946;2023-01-01T16:10:26;12.20;99.90
25092;DHT22;13082;52.374;4.946;2023-01-01T16:12:52;12.20;99.90
25092;DHT22;13082;52.374;4.946;2023-01-01T16:15:18;12.20;99.90
25092;DHT22;13082;52.374;4.946;2023-01-01T16:17:44;12.30;99.90
25092;DHT22;13082;52.374;4.946;2023-01-01T16:20:18;12.30;99.90
25092;DHT22;13082;52.374;4.946;2023-01-01T16:22:44;12.30;99.90
25092;DHT22;13082;52.374;4.946;2023-01-01T16:25:21;12.30;99.90
25092;DHT22;13082;52.374;4.946;2023-01-01T16:27:47;12.30;99.90
25092;DHT22;13082;52.374;4.946;2023-01-01T16:30:14;12.30;99.90
25092;DHT22;13082;52.374;4.946;2023-01-01T16:32:40;12.30;99.90
25092;DHT22;13082;52.374;4.946;2023-01-01T16:35:11;12.30;99.90
25092;DHT22;13082;52.374;4.946;2023-01-01T16:37:37;12.30;99.90
25092;DHT22;13082;52.374;4.946;2023-01-01T16:40:03;12.30;99.90
25092;DHT22;13082;52.374;4.946;2023-01-01T16:42:29;12.30;99.90
25092;DHT22;13082;52.374;4.946;2023-01-01T16:44:54;12.30;99.90
25092;DHT22;13082;52.374;4.946;2023-01-01T16:47:20;12.30;99.90
25092;DHT22;13082;52.374;4.946;2023-01-01T16:49:47;12.30;99.90
25092;DHT22;13082;52.374;4.946;2023-01-01T16:52:12;12.30;99.90
25092;DHT22;13082;52.374;4.946;2023-01-01T16:54:38;12.30;99.90
25092;DHT22;13082;52.374;4.946;2023-01-01T16:57:04;12.30;99.90
25092;DHT22;13082;52.374;4.946;2023-01-01T16:59:30;12.30;99.90
25092;DHT22;13082;52.374;4.946;2023-01-01T17:01:56;12.30;99.90
25092;DHT22;13082;52.374;4.946;2023-01-01T17:04:21;12.30;99.90
25092;DHT22;13082;52.374;4.946;2023-01-01T17:06:47;12.30;99.90
25092;DHT22;13082;52.374;4.946;2023-01-01T17:09:12;12.30;99.90
25092;DHT22;13082;52.374;4.946;2023-01-01T17:11:39;12.30;99.90
25092;DHT22;13082;52.374;4.946;2023-01-01T17:14:05;12.30;99.90
25092;DHT22;13082;52.374;4.946;2023-01-01T17:16:31;12.30;99.90
25092;DHT22;13082;52.374;4.946;2023-01-01T17:18:57;12.30;99.90
25092;DHT22;13082;52.374;4.946;2023-01-01T17:21:23;12.30;99.90
25092;DHT22;13082;52.374;4.946;2023-01-01T17:23:49;12.30;99.90
25092;DHT22;13082;52.374;4.946;2023-01-01T17:26:16;12.40;99.90
25092;DHT22;13082;52.374;4.946;2023-01-01T17:28:43;12.40;99.90
25092;DHT22;13082;52.374;4.946;2023-01-01T17:31:12;12.40;99.90
25092;DHT22;13082;52.374;4.946;2023-01-01T17:33:38;12.40;99.90
25092;DHT22;13082;52.374;4.946;2023-01-01T17:36:05;12.40;99.90
25092;DHT22;13082;52.374;4.946;2023-01-01T17:38:31;12.40;99.90
25092;DHT22;13082;52.374;4.946;2023-01-01T17:41:06;12.40;99.90
25092;DHT22;13082;52.374;4.946;2023-01-01T17:43:33;12.40;99.90
25092;DHT22;13082;52.374;4.946;2023-01-01T17:46:07;12.40;99.90
25092;DHT22;13082;52.374;4.946;2023-01-01T17:48:33;12.40;99.90
25092;DHT22;13082;52.374;4.946;2023-01-01T17:50:59;12.40;99.90
25092;DHT22;13082;52.374;4.946;2023-01-01T17:53:25;12.40;99.90
25092;DHT22;13082;52.374;4.946;2023-01-01T17:55:51;12.40;99.90
25092;DHT22;13082;52.374;4.946;2023-01-01T17:58:16;12.40;99.90
25092;DHT22;13082;52.374;4.946;2023-01-01T18:00:42;12.40;99.90
25092;DHT22;13082;52.374;4.946;2023-01-01T18:03:15;12.40;99.90
25092;DHT22;13082;52.374;4.946;2023-01-01T18:05:41;12.40;99.90
25092;DHT22;13082;52.374;4.946;2023-01-01T18:08:08;12.40;99.90
25092;DHT22;13082;52.374;4.946;2023-01-01T18:10:34;12.40;99.90
25092;DHT22;13082;52.374;4.946;2023-01-01T18:13:00;12.40;99.90
25092;DHT22;13082;52.374;4.946;2023-01-01T18:15:26;12.30;99.90
25092;DHT22;13082;52.374;4.946;2023-01-01T18:17:51;12.30;99.90
25092;DHT22;13082;52.374;4.946;2023-01-01T18:20:17;12.30;99.90
25092;DHT22;13082;52.374;4.946;2023-01-01T18:22:43;12.30;99.90
25092;DHT22;13082;52.374;4.946;2023-01-01T18:25:10;12.30;99.90
25092;DHT22;13082;52.374;4.946;2023-01-01T18:27:35;12.30;99.90
25092;DHT22;13082;52.374;4.946;2023-01-01T18:30:02;12.30;99.90
25092;DHT22;13082;52.374;4.946;2023-01-01T18:32:27;12.20;99.90
25092;DHT22;13082;52.374;4.946;2023-01-01T18:34:53;12.20;99.90
25092;DHT22;13082;52.374;4.946;2023-01-01T18:37:18;12.10;99.90
25092;DHT22;13082;52.374;4.946;2023-01-01T18:39:46;12.10;99.90
25092;DHT22;13082;52.374;4.946;2023-01-01T18:42:27;12.10;99.90
25092;DHT22;13082;52.374;4.946;2023-01-01T18:44:55;12.10;99.90
25092;DHT22;13082;52.374;4.946;2023-01-01T18:47:24;12.00;99.90
25092;DHT22;13082;52.374;4.946;2023-01-01T18:52:49;11.80;99.90
25092;DHT22;13082;52.374;4.946;2023-01-01T18:55:15;11.70;99.90
25092;DHT22;13082;52.374;4.946;2023-01-01T18:57:47;11.60;99.90
25092;DHT22;13082;52.374;4.946;2023-01-01T19:00:18;11.50;99.90
25092;DHT22;13082;52.374;4.946;2023-01-01T19:03:00;11.40;99.90
25092;DHT22;13082;52.374;4.946;2023-01-01T19:05:28;11.40;99.90
25092;DHT22;13082;52.374;4.946;2023-01-01T19:10:36;11.30;99.90
25092;DHT22;13082;52.374;4.946;2023-01-01T19:15:53;11.30;99.90
25092;DHT22;13082;52.374;4.946;2023-01-01T19:18:22;11.40;99.90
25092;DHT22;13082;52.374;4.946;2023-01-01T19:20:49;11.40;99.90
25092;DHT22;13082;52.374;4.946;2023-01-01T19:23:20;11.50;99.90
25092;DHT22;13082;52.374;4.946;2023-01-01T19:25:46;11.50;99.90
25092;DHT22;13082;52.374;4.946;2023-01-01T19:30:42;11.50;99.90
25092;DHT22;13082;52.374;4.946;2023-01-01T19:33:07;11.60;99.90
25092;DHT22;13082;52.374;4.946;2023-01-01T19:35:33;11.50;99.90
25092;DHT22;13082;52.374;4.946;2023-01-01T19:37:59;11.50;99.90
25092;DHT22;13082;52.374;4.946;2023-01-01T19:40:24;11.50;99.90
25092;DHT22;13082;52.374;4.946;2023-01-01T19:42:50;11.50;99.90
25092;DHT22;13082;52.374;4.946;2023-01-01T19:45:15;11.60;99.90
25092;DHT22;13082;52.374;4.946;2023-01-01T19:47:41;11.60;99.90
25092;DHT22;13082;52.374;4.946;2023-01-01T19:50:08;11.60;99.90
25092;DHT22;13082;52.374;4.946;2023-01-01T19:52:34;11.60;99.90
25092;DHT22;13082;52.374;4.946;2023-01-01T19:55:00;11.50;99.90
25092;DHT22;13082;52.374;4.946;2023-01-01T19:57:26;11.50;99.90
25092;DHT22;13082;52.374;4.946;2023-01-01T19:59:51;11.50;99.90
25092;DHT22;13082;52.374;4.946;2023-01-01T20:02:17;11.50;99.90
25092;DHT22;13082;52.374;4.946;2023-01-01T20:04:43;11.50;99.90
25092;DHT22;13082;52.374;4.946;2023-01-01T20:07:08;11.40;99.90
25092;DHT22;13082;52.374;4.946;2023-01-01T20:09:34;11.40;99.90
25092;DHT22;13082;52.374;4.946;2023-01-01T20:11:59;11.40;99.90
25092;DHT22;13082;52.374;4.946;2023-01-01T20:14:25;11.40;99.90
25092;DHT22;13082;52.374;4.946;2023-01-01T20:16:51;11.40;99.90
25092;DHT22;13082;52.374;4.946;2023-01-01T20:19:18;11.40;99.90
25092;DHT22;13082;52.374;4.946;2023-01-01T20:21:43;11.40;99.90
25092;DHT22;13082;52.374;4.946;2023-01-01T20:24:27;11.40;99.90
25092;DHT22;13082;52.374;4.946;2023-01-01T20:26:53;11.40;99.90
25092;DHT22;13082;52.374;4.946;2023-01-01T20:29:21;11.30;99.90
25092;DHT22;13082;52.374;4.946;2023-01-01T20:31:47;11.30;99.90
25092;DHT22;13082;52.374;4.946;2023-01-01T20:34:13;11.30;99.90
25092;DHT22;13082;52.374;4.946;2023-01-01T20:36:39;11.30;99.90
25092;DHT22;13082;52.374;4.946;2023-01-01T20:39:23;11.30;99.90
25092;DHT22;13082;52.374;4.946;2023-01-01T20:41:49;11.30;99.90
25092;DHT22;13082;52.374;4.946;2023-01-01T20:44:15;11.30;99.90
25092;DHT22;13082;52.374;4.946;2023-01-01T20:46:40;11.20;99.90
25092;DHT22;13082;52.374;4.946;2023-01-01T20:49:07;11.20;99.90
25092;DHT22;13082;52.374;4.946;2023-01-01T20:51:32;11.20;99.90
25092;DHT22;13082;52.374;4.946;2023-01-01T20:53:58;11.20;99.90
25092;DHT22;13082;52.374;4.946;2023-01-01T20:56:24;11.20;99.90
25092;DHT22;13082;52.374;4.946;2023-01-01T20:58:50;11.20;99.90
25092;DHT22;13082;52.374;4.946;2023-01-01T21:01:20;11.10;99.90
25092;DHT22;13082;52.374;4.946;2023-01-01T21:03:45;11.10;99.90
25092;DHT22;13082;52.374;4.946;2023-01-01T21:06:11;11.20;99.90
25092;DHT22;13082;52.374;4.946;2023-01-01T21:08:37;11.10;99.90
25092;DHT22;13082;52.374;4.946;2023-01-01T21:11:02;11.20;99.90
25092;DHT22;13082;52.374;4.946;2023-01-01T21:13:28;11.20;99.90
25092;DHT22;13082;52.374;4.946;2023-01-01T21:15:54;11.10;99.90
25092;DHT22;13082;52.374;4.946;2023-01-01T21:18:21;11.10;99.90
25092;DHT22;13082;52.374;4.946;2023-01-01T21:20:47;11.10;99.90
25092;DHT22;13082;52.374;4.946;2023-01-01T21:23:23;11.20;99.90
25092;DHT22;13082;52.374;4.946;2023-01-01T21:25:49;11.20;99.90
25092;DHT22;13082;52.374;4.946;2023-01-01T21:28:16;11.10;99.90
25092;DHT22;13082;52.374;4.946;2023-01-01T21:30:50;11.20;99.90
25092;DHT22;13082;52.374;4.946;2023-01-01T21:33:30;11.10;99.90
25092;DHT22;13082;52.374;4.946;2023-01-01T21:35:57;11.20;99.90
25092;DHT22;13082;52.374;4.946;2023-01-01T21:38:28;11.20;99.90
25092;DHT22;13082;52.374;4.946;2023-01-01T21:40:55;11.20;99.90
25092;DHT22;13082;52.374;4.946;2023-01-01T21:43:26;11.20;99.90
25092;DHT22;13082;52.374;4.946;2023-01-01T21:45:53;11.20;99.90
25092;DHT22;13082;52.374;4.946;2023-01-01T21:48:41;11.10;99.90
25092;DHT22;13082;52.374;4.946;2023-01-01T21:51:20;11.10;99.90
25092;DHT22;13082;52.374;4.946;2023-01-01T21:53:46;11.10;99.90
25092;DHT22;13082;52.374;4.946;2023-01-01T21:56:36;11.10;99.90
25092;DHT22;13082;52.374;4.946;2023-01-01T21:59:16;11.20;99.90
25092;DHT22;13082;52.374;4.946;2023-01-01T22:01:53;11.20;99.90
25092;DHT22;13082;52.374;4.946;2023-01-01T22:04:21;11.20;99.90
25092;DHT22;13082;52.374;4.946;2023-01-01T22:06:55;11.30;99.90
25092;DHT22;13082;52.374;4.946;2023-01-01T22:09:33;11.20;99.90
25092;DHT22;13082;52.374;4.946;2023-01-01T22:14:43;11.30;99.90
25092;DHT22;13082;52.374;4.946;2023-01-01T22:17:28;11.30;99.90
25092;DHT22;13082;52.374;4.946;2023-01-01T22:20:26;11.20;99.90
25092;DHT22;13082;52.374;4.946;2023-01-01T22:22:51;11.20;99.90
25092;DHT22;13082;52.374;4.946;2023-01-01T22:25:30;11.20;99.90
25092;DHT22;13082;52.374;4.946;2023-01-01T22:28:20;11.20;99.90
25092;DHT22;13082;52.374;4.946;2023-01-01T22:30:43;11.20;99.90
25092;DHT22;13082;52.374;4.946;2023-01-01T22:33:17;11.20;99.90
25092;DHT22;13082;52.374;4.946;2023-01-01T22:35:43;11.20;99.90
25092;DHT22;13082;52.374;4.946;2023-01-01T22:38:15;11.20;99.90
25092;DHT22;13082;52.374;4.946;2023-01-01T22:40:42;11.20;99.90
25092;DHT22;13082;52.374;4.946;2023-01-01T22:43:14;11.20;99.90
25092;DHT22;13082;52.374;4.946;2023-01-01T22:45:42;11.20;99.90
25092;DHT22;13082;52.374;4.946;2023-01-01T22:48:36;11.20;99.90
25092;DHT22;13082;52.374;4.946;2023-01-01T22:51:09;11.20;99.90
25092;DHT22;13082;52.374;4.946;2023-01-01T22:53:37;11.20;99.90
25092;DHT22;13082;52.374;4.946;2023-01-01T22:56:02;11.20;99.90
25092;DHT22;13082;52.374;4.946;2023-01-01T22:58:28;11.20;99.90
25092;DHT22;13082;52.374;4.946;2023-01-01T23:00:53;11.20;99.90
25092;DHT22;13082;52.374;4.946;2023-01-01T23:03:19;11.20;99.90
25092;DHT22;13082;52.374;4.946;2023-01-01T23:05:45;11.20;99.90
25092;DHT22;13082;52.374;4.946;2023-01-01T23:08:11;11.20;99.90
25092;DHT22;13082;52.374;4.946;2023-01-01T23:10:36;11.20;99.90
25092;DHT22;13082;52.374;4.946;2023-01-01T23:13:02;11.20;99.90
25092;DHT22;13082;52.374;4.946;2023-01-01T23:15:48;11.20;99.90
25092;DHT22;13082;52.374;4.946;2023-01-01T23:18:26;11.20;99.90
25092;DHT22;13082;52.374;4.946;2023-01-01T23:20:52;11.20;99.90
25092;DHT22;13082;52.374;4.946;2023-01-01T23:23:18;11.20;99.90
25092;DHT22;13082;52.374;4.946;2023-01-01T23:25:44;11.20;99.90
25092;DHT22;13082;52.374;4.946;2023-01-01T23:28:10;11.30;99.90
25092;DHT22;13082;52.374;4.946;2023-01-01T23:30:36;11.30;99.90
25092;DHT22;13082;52.374;4.946;2023-01-01T23:33:02;11.30;99.90
25092;DHT22;13082;52.374;4.946;2023-01-01T23:35:28;11.30;99.90
25092;DHT22;13082;52.374;4.946;2023-01-01T23:37:53;11.30;99.90
25092;DHT22;13082;52.374;4.946;2023-01-01T23:40:19;11.30;99.90
25092;DHT22;13082;52.374;4.946;2023-01-01T23:42:44;11.30;99.90
25092;DHT22;13082;52.374;4.946;2023-01-01T23:45:10;11.30;99.90
25092;DHT22;13082;52.374;4.946;2023-01-01T23:47:36;11.20;99.90
25092;DHT22;13082;52.374;4.946;2023-01-01T23:50:02;11.20;99.90
25092;DHT22;13082;52.374;4.946;2023-01-01T23:52:28;11.20;99.90
25092;DHT22;13082;52.374;4.946;2023-01-01T23:54:54;11.20;99.90
25092;DHT22;13082;52.374;4.946;2023-01-01T23:57:19;11.30;99.90
25092;DHT22;13082;52.374;4.946;2023-01-01T23:59:45;11.30;99.90
